sensor_id;sensor_type;location;lat;lon;timestamp;pressure;altitude;pressure_sealevel;temperature;humidity
74627;BME280;63132;52.268;5.192;2023-05-17T00:01:29;102466.28;;;5.49;94.02
74627;BME280;63132;52.268;5.192;2023-05-17T00:03:54;102470.31;;;5.61;94.11
74627;BME280;63132;52.268;5.192;2023-05-17T00:06:20;102468.09;;;5.76;93.96
74627;BME280;63132;52.268;5.192;2023-05-17T00:08:45;102464.69;;;5.99;94.18
74627;BME280;63132;52.268;5.192;2023-05-17T00:11:11;102468.50;;;6.18;93.97
74627;BME280;63132;52.268;5.192;2023-05-17T00:13:36;102468.72;;;6.37;93.24
74627;BME280;63132;52.268;5.192;2023-05-17T00:16:02;102471.09;;;6.45;92.54
74627;BME280;63132;52.268;5.192;2023-05-17T00:18:27;102465.31;;;6.59;92.22
74627;BME280;63132;52.268;5.192;2023-05-17T00:20:53;102452.88;;;6.61;91.80
74627;BME280;63132;52.268;5.192;2023-05-17T00:23:18;102457.63;;;6.53;91.61
74627;BME280;63132;52.268;5.192;2023-05-17T00:25:43;102456.19;;;6.42;91.31
74627;BME280;63132;52.268;5.192;2023-05-17T00:28:08;102452.38;;;6.25;91.20
74627;BME280;63132;52.268;5.192;2023-05-17T00:30:34;102446.09;;;6.30;91.52
74627;BME280;63132;52.268;5.192;2023-05-17T00:32:59;102449.88;;;6.21;91.60
74627;BME280;63132;52.268;5.192;2023-05-17T00:35:24;102444.34;;;6.28;91.67
74627;BME280;63132;52.268;5.192;2023-05-17T00:37:50;102450.16;;;6.13;91.89
74627;BME280;63132;52.268;5.192;2023-05-17T00:40:15;102447.00;;;6.01;92.23
74627;BME280;63132;52.268;5.192;2023-05-17T00:42:40;102456.97;;;5.93;92.55
74627;BME280;63132;52.268;5.192;2023-05-17T00:45:06;102455.22;;;5.92;92.94
74627;BME280;63132;52.268;5.192;2023-05-17T00:47:31;102459.50;;;5.96;93.39
74627;BME280;63132;52.268;5.192;2023-05-17T00:49:56;102455.66;;;6.07;93.80
74627;BME280;63132;52.268;5.192;2023-05-17T00:52:22;102460.44;;;6.22;93.92
74627;BME280;63132;52.268;5.192;2023-05-17T00:54:47;102461.63;;;6.39;94.02
74627;BME280;63132;52.268;5.192;2023-05-17T00:57:14;102458.69;;;6.47;93.74
74627;BME280;63132;52.268;5.192;2023-05-17T00:59:40;102452.88;;;6.61;93.43
74627;BME280;63132;52.268;5.192;2023-05-17T01:02:06;102456.13;;;6.69;92.58
74627;BME280;63132;52.268;5.192;2023-05-17T01:04:31;102441.41;;;6.86;91.94
74627;BME280;63132;52.268;5.192;2023-05-17T01:06:57;102444.78;;;6.90;91.13
74627;BME280;63132;52.268;5.192;2023-05-17T01:09:22;102439.16;;;6.99;90.98
74627;BME280;63132;52.268;5.192;2023-05-17T01:17:02;102433.59;;;6.83;91.15
74627;BME280;63132;52.268;5.192;2023-05-17T01:21:58;102439.78;;;6.82;92.15
74627;BME280;63132;52.268;5.192;2023-05-17T01:24:32;102448.66;;;6.81;92.27
74627;BME280;63132;52.268;5.192;2023-05-17T01:27:03;102441.63;;;6.80;92.19
74627;BME280;63132;52.268;5.192;2023-05-17T01:29:29;102438.06;;;6.81;92.32
74627;BME280;63132;52.268;5.192;2023-05-17T01:31:56;102444.19;;;6.83;92.39
74627;BME280;63132;52.268;5.192;2023-05-17T01:34:24;102439.41;;;6.93;92.72
74627;BME280;63132;52.268;5.192;2023-05-17T01:36:49;102435.84;;;7.16;92.53
74627;BME280;63132;52.268;5.192;2023-05-17T01:39:15;102444.22;;;7.28;91.25
74627;BME280;63132;52.268;5.192;2023-05-17T01:41:40;102444.28;;;7.26;91.30
74627;BME280;63132;52.268;5.192;2023-05-17T01:44:24;102442.44;;;7.28;91.48
74627;BME280;63132;52.268;5.192;2023-05-17T01:46:51;102441.03;;;7.19;91.70
74627;BME280;63132;52.268;5.192;2023-05-17T01:51:48;102448.78;;;7.24;92.12
74627;BME280;63132;52.268;5.192;2023-05-17T01:54:19;102438.41;;;7.19;92.78
74627;BME280;63132;52.268;5.192;2023-05-17T01:56:47;102440.09;;;7.20;93.61
74627;BME280;63132;52.268;5.192;2023-05-17T01:59:14;102439.66;;;7.31;93.81
74627;BME280;63132;52.268;5.192;2023-05-17T02:01:42;102434.28;;;7.12;93.72
74627;BME280;63132;52.268;5.192;2023-05-17T02:04:08;102443.81;;;7.39;93.71
74627;BME280;63132;52.268;5.192;2023-05-17T02:06:34;102445.19;;;7.03;93.30
74627;BME280;63132;52.268;5.192;2023-05-17T02:08:59;102457.50;;;7.04;93.85
74627;BME280;63132;52.268;5.192;2023-05-17T02:11:26;102450.09;;;6.90;93.94
74627;BME280;63132;52.268;5.192;2023-05-17T02:13:51;102453.25;;;7.24;94.36
74627;BME280;63132;52.268;5.192;2023-05-17T02:16:17;102452.31;;;7.25;94.17
74627;BME280;63132;52.268;5.192;2023-05-17T02:18:42;102444.97;;;7.31;93.99
74627;BME280;63132;52.268;5.192;2023-05-17T02:21:07;102452.88;;;7.33;93.98
74627;BME280;63132;52.268;5.192;2023-05-17T02:23:32;102448.38;;;7.35;94.16
74627;BME280;63132;52.268;5.192;2023-05-17T02:25:58;102448.13;;;7.41;94.41
74627;BME280;63132;52.268;5.192;2023-05-17T02:28:23;102452.13;;;7.29;94.26
74627;BME280;63132;52.268;5.192;2023-05-17T02:30:48;102453.72;;;7.33;94.63
74627;BME280;63132;52.268;5.192;2023-05-17T02:33:13;102450.66;;;7.44;95.08
74627;BME280;63132;52.268;5.192;2023-05-17T02:35:38;102453.84;;;7.53;95.24
74627;BME280;63132;52.268;5.192;2023-05-17T02:38:04;102455.00;;;7.68;95.09
74627;BME280;63132;52.268;5.192;2023-05-17T02:40:29;102452.34;;;8.11;94.35
74627;BME280;63132;52.268;5.192;2023-05-17T02:42:54;102452.41;;;8.10;93.52
74627;BME280;63132;52.268;5.192;2023-05-17T02:45:19;102455.03;;;8.31;92.51
74627;BME280;63132;52.268;5.192;2023-05-17T02:47:45;102464.66;;;8.54;91.11
74627;BME280;63132;52.268;5.192;2023-05-17T02:50:10;102458.03;;;8.64;89.99
74627;BME280;63132;52.268;5.192;2023-05-17T02:52:35;102461.19;;;8.73;88.58
74627;BME280;63132;52.268;5.192;2023-05-17T02:55:01;102466.16;;;8.81;87.26
74627;BME280;63132;52.268;5.192;2023-05-17T02:57:26;102465.72;;;8.90;86.16
74627;BME280;63132;52.268;5.192;2023-05-17T02:59:51;102467.53;;;8.90;85.28
74627;BME280;63132;52.268;5.192;2023-05-17T03:02:16;102472.84;;;8.90;85.61
74627;BME280;63132;52.268;5.192;2023-05-17T03:04:42;102477.34;;;8.68;84.06
74627;BME280;63132;52.268;5.192;2023-05-17T03:07:07;102483.22;;;8.54;82.66
74627;BME280;63132;52.268;5.192;2023-05-17T03:09:33;102481.63;;;8.50;80.47
74627;BME280;63132;52.268;5.192;2023-05-17T03:11:58;102480.56;;;8.33;79.90
74627;BME280;63132;52.268;5.192;2023-05-17T03:14:23;102481.06;;;8.22;79.44
74627;BME280;63132;52.268;5.192;2023-05-17T03:16:48;102489.25;;;8.16;78.96
74627;BME280;63132;52.268;5.192;2023-05-17T03:19:14;102486.47;;;8.19;78.46
74627;BME280;63132;52.268;5.192;2023-05-17T03:21:39;102482.16;;;7.96;79.12
74627;BME280;63132;52.268;5.192;2023-05-17T03:24:04;102490.81;;;7.78;79.38
74627;BME280;63132;52.268;5.192;2023-05-17T03:26:30;102493.81;;;7.91;78.91
74627;BME280;63132;52.268;5.192;2023-05-17T03:28:57;102494.06;;;7.63;79.41
74627;BME280;63132;52.268;5.192;2023-05-17T03:31:22;102492.66;;;7.54;79.89
74627;BME280;63132;52.268;5.192;2023-05-17T03:33:47;102496.66;;;7.64;79.72
74627;BME280;63132;52.268;5.192;2023-05-17T03:36:12;102496.28;;;7.51;79.73
74627;BME280;63132;52.268;5.192;2023-05-17T03:38:38;102503.34;;;7.51;80.12
74627;BME280;63132;52.268;5.192;2023-05-17T03:41:03;102503.28;;;7.30;81.21
74627;BME280;63132;52.268;5.192;2023-05-17T03:43:29;102510.94;;;7.38;80.43
74627;BME280;63132;52.268;5.192;2023-05-17T03:45:54;102513.94;;;7.28;80.72
74627;BME280;63132;52.268;5.192;2023-05-17T03:48:19;102513.41;;;7.18;81.41
74627;BME280;63132;52.268;5.192;2023-05-17T03:50:44;102515.16;;;7.19;80.83
74627;BME280;63132;52.268;5.192;2023-05-17T03:53:10;102515.50;;;7.10;80.99
74627;BME280;63132;52.268;5.192;2023-05-17T03:55:35;102524.13;;;7.15;81.19
74627;BME280;63132;52.268;5.192;2023-05-17T03:58:01;102523.44;;;7.10;80.54
74627;BME280;63132;52.268;5.192;2023-05-17T04:00:26;102527.13;;;7.06;80.50
74627;BME280;63132;52.268;5.192;2023-05-17T04:02:51;102531.09;;;7.18;80.22
74627;BME280;63132;52.268;5.192;2023-05-17T04:05:17;102530.00;;;7.24;79.41
74627;BME280;63132;52.268;5.192;2023-05-17T04:07:42;102526.06;;;7.34;78.74
74627;BME280;63132;52.268;5.192;2023-05-17T04:10:08;102530.56;;;7.32;78.81
74627;BME280;63132;52.268;5.192;2023-05-17T04:12:33;102533.50;;;7.24;79.21
74627;BME280;63132;52.268;5.192;2023-05-17T04:14:59;102541.38;;;7.26;79.27
74627;BME280;63132;52.268;5.192;2023-05-17T04:17:25;102542.31;;;7.25;79.50
74627;BME280;63132;52.268;5.192;2023-05-17T04:19:50;102544.28;;;7.19;79.77
74627;BME280;63132;52.268;5.192;2023-05-17T04:22:15;102553.25;;;7.15;80.17
74627;BME280;63132;52.268;5.192;2023-05-17T04:24:40;102555.78;;;7.18;80.39
74627;BME280;63132;52.268;5.192;2023-05-17T04:27:05;102560.25;;;7.16;80.47
74627;BME280;63132;52.268;5.192;2023-05-17T04:29:32;102566.81;;;7.06;80.98
74627;BME280;63132;52.268;5.192;2023-05-17T04:31:57;102564.16;;;7.30;80.57
74627;BME280;63132;52.268;5.192;2023-05-17T04:34:23;102567.47;;;7.37;80.43
74627;BME280;63132;52.268;5.192;2023-05-17T04:36:49;102568.31;;;7.61;79.49
74627;BME280;63132;52.268;5.192;2023-05-17T04:39:14;102575.81;;;7.94;78.85
74627;BME280;63132;52.268;5.192;2023-05-17T04:41:39;102576.75;;;8.16;77.64
74627;BME280;63132;52.268;5.192;2023-05-17T04:44:05;102575.44;;;8.26;76.98
74627;BME280;63132;52.268;5.192;2023-05-17T04:46:30;102572.59;;;8.31;77.11
74627;BME280;63132;52.268;5.192;2023-05-17T04:48:56;102581.09;;;8.39;77.18
74627;BME280;63132;52.268;5.192;2023-05-17T04:51:21;102584.56;;;8.41;77.23
74627;BME280;63132;52.268;5.192;2023-05-17T04:53:47;102579.38;;;8.61;76.29
74627;BME280;63132;52.268;5.192;2023-05-17T04:56:12;102581.06;;;8.62;76.16
74627;BME280;63132;52.268;5.192;2023-05-17T04:58:37;102590.81;;;8.61;76.61
74627;BME280;63132;52.268;5.192;2023-05-17T05:01:02;102591.31;;;8.49;76.79
74627;BME280;63132;52.268;5.192;2023-05-17T05:03:29;102592.69;;;8.37;77.85
74627;BME280;63132;52.268;5.192;2023-05-17T05:05:54;102600.97;;;8.29;77.09
74627;BME280;63132;52.268;5.192;2023-05-17T05:08:19;102602.00;;;8.25;76.83
74627;BME280;63132;52.268;5.192;2023-05-17T05:10:45;102605.88;;;8.38;75.82
74627;BME280;63132;52.268;5.192;2023-05-17T05:13:10;102603.94;;;8.21;76.92
74627;BME280;63132;52.268;5.192;2023-05-17T05:15:35;102613.94;;;8.14;77.14
74627;BME280;63132;52.268;5.192;2023-05-17T05:18:01;102613.38;;;8.28;77.34
74627;BME280;63132;52.268;5.192;2023-05-17T05:20:26;102622.78;;;8.13;77.56
74627;BME280;63132;52.268;5.192;2023-05-17T05:22:52;102619.72;;;8.24;77.79
74627;BME280;63132;52.268;5.192;2023-05-17T05:25:17;102627.91;;;8.40;76.44
74627;BME280;63132;52.268;5.192;2023-05-17T05:27:42;102635.63;;;8.47;76.75
74627;BME280;63132;52.268;5.192;2023-05-17T05:30:08;102637.28;;;8.72;76.11
74627;BME280;63132;52.268;5.192;2023-05-17T05:32:33;102633.00;;;8.68;74.54
74627;BME280;63132;52.268;5.192;2023-05-17T05:34:58;102635.94;;;8.82;74.79
74627;BME280;63132;52.268;5.192;2023-05-17T05:37:23;102638.97;;;8.94;72.84
74627;BME280;63132;52.268;5.192;2023-05-17T05:39:49;102640.94;;;9.30;71.56
74627;BME280;63132;52.268;5.192;2023-05-17T05:42:14;102638.38;;;9.48;71.08
74627;BME280;63132;52.268;5.192;2023-05-17T05:44:40;102647.88;;;9.73;69.84
74627;BME280;63132;52.268;5.192;2023-05-17T05:47:05;102654.19;;;9.90;68.43
74627;BME280;63132;52.268;5.192;2023-05-17T05:49:30;102656.66;;;9.75;67.74
74627;BME280;63132;52.268;5.192;2023-05-17T05:51:56;102658.78;;;9.86;67.07
74627;BME280;63132;52.268;5.192;2023-05-17T05:54:21;102657.50;;;9.76;68.12
74627;BME280;63132;52.268;5.192;2023-05-17T05:56:46;102656.41;;;9.80;69.63
74627;BME280;63132;52.268;5.192;2023-05-17T05:59:12;102663.47;;;10.00;68.62
74627;BME280;63132;52.268;5.192;2023-05-17T06:01:37;102670.59;;;9.80;67.01
74627;BME280;63132;52.268;5.192;2023-05-17T06:04:02;102671.09;;;9.69;67.35
74627;BME280;63132;52.268;5.192;2023-05-17T06:06:28;102672.94;;;9.67;68.25
74627;BME280;63132;52.268;5.192;2023-05-17T06:08:53;102670.03;;;9.74;67.90
74627;BME280;63132;52.268;5.192;2023-05-17T06:11:19;102675.97;;;9.59;66.43
74627;BME280;63132;52.268;5.192;2023-05-17T06:13:45;102671.78;;;9.54;66.67
74627;BME280;63132;52.268;5.192;2023-05-17T06:16:10;102678.09;;;9.51;67.84
74627;BME280;63132;52.268;5.192;2023-05-17T06:18:35;102680.03;;;9.47;69.08
74627;BME280;63132;52.268;5.192;2023-05-17T06:21:00;102686.34;;;9.45;68.36
74627;BME280;63132;52.268;5.192;2023-05-17T06:23:26;102687.56;;;9.57;68.84
74627;BME280;63132;52.268;5.192;2023-05-17T06:25:51;102685.25;;;9.49;69.20
74627;BME280;63132;52.268;5.192;2023-05-17T06:28:16;102685.75;;;9.38;69.74
74627;BME280;63132;52.268;5.192;2023-05-17T06:30:41;102690.75;;;9.25;71.31
74627;BME280;63132;52.268;5.192;2023-05-17T06:33:07;102700.09;;;9.34;70.39
74627;BME280;63132;52.268;5.192;2023-05-17T06:35:33;102700.16;;;9.32;71.34
74627;BME280;63132;52.268;5.192;2023-05-17T06:37:58;102695.19;;;9.24;68.42
74627;BME280;63132;52.268;5.192;2023-05-17T06:40:23;102703.38;;;9.20;67.22
74627;BME280;63132;52.268;5.192;2023-05-17T06:42:49;102697.84;;;9.04;67.29
74627;BME280;63132;52.268;5.192;2023-05-17T06:45:14;102713.19;;;8.97;67.93
74627;BME280;63132;52.268;5.192;2023-05-17T06:47:39;102716.13;;;9.11;67.09
74627;BME280;63132;52.268;5.192;2023-05-17T06:50:05;102714.03;;;8.97;68.64
74627;BME280;63132;52.268;5.192;2023-05-17T06:52:31;102708.88;;;8.94;67.71
74627;BME280;63132;52.268;5.192;2023-05-17T06:54:56;102713.31;;;8.94;67.08
74627;BME280;63132;52.268;5.192;2023-05-17T06:57:21;102721.81;;;9.02;66.81
74627;BME280;63132;52.268;5.192;2023-05-17T06:59:48;102727.47;;;9.15;66.58
74627;BME280;63132;52.268;5.192;2023-05-17T07:02:13;102730.41;;;9.30;64.99
74627;BME280;63132;52.268;5.192;2023-05-17T07:04:38;102730.16;;;9.55;63.20
74627;BME280;63132;52.268;5.192;2023-05-17T07:07:04;102734.88;;;9.69;60.71
74627;BME280;63132;52.268;5.192;2023-05-17T07:09:29;102732.34;;;9.66;60.18
74627;BME280;63132;52.268;5.192;2023-05-17T07:11:54;102728.63;;;9.90;59.94
74627;BME280;63132;52.268;5.192;2023-05-17T07:14:20;102728.25;;;9.78;59.07
74627;BME280;63132;52.268;5.192;2023-05-17T07:16:45;102732.34;;;9.66;58.38
74627;BME280;63132;52.268;5.192;2023-05-17T07:19:11;102746.91;;;9.57;57.88
74627;BME280;63132;52.268;5.192;2023-05-17T07:21:37;102734.78;;;9.71;58.44
74627;BME280;63132;52.268;5.192;2023-05-17T07:24:02;102739.00;;;9.96;59.07
74627;BME280;63132;52.268;5.192;2023-05-17T07:26:27;102744.25;;;10.17;58.49
74627;BME280;63132;52.268;5.192;2023-05-17T07:28:52;102747.88;;;10.34;59.50
74627;BME280;63132;52.268;5.192;2023-05-17T07:31:17;102752.00;;;10.22;59.70
74627;BME280;63132;52.268;5.192;2023-05-17T07:33:43;102753.72;;;10.42;58.72
74627;BME280;63132;52.268;5.192;2023-05-17T07:36:08;102738.13;;;10.53;59.19
74627;BME280;63132;52.268;5.192;2023-05-17T07:38:33;102729.16;;;10.92;58.82
74627;BME280;63132;52.268;5.192;2023-05-17T07:41:02;102738.66;;;10.97;58.76
74627;BME280;63132;52.268;5.192;2023-05-17T07:43:27;102746.56;;;11.17;58.15
74627;BME280;63132;52.268;5.192;2023-05-17T07:45:53;102750.72;;;11.05;59.40
74627;BME280;63132;52.268;5.192;2023-05-17T07:48:18;102755.94;;;10.71;57.76
74627;BME280;63132;52.268;5.192;2023-05-17T07:50:43;102763.41;;;10.43;58.85
74627;BME280;63132;52.268;5.192;2023-05-17T07:53:09;102777.66;;;10.42;57.97
74627;BME280;63132;52.268;5.192;2023-05-17T07:55:34;102764.81;;;10.33;57.89
74627;BME280;63132;52.268;5.192;2023-05-17T07:57:59;102768.09;;;10.18;57.76
74627;BME280;63132;52.268;5.192;2023-05-17T08:00:25;102771.47;;;10.22;57.66
74627;BME280;63132;52.268;5.192;2023-05-17T08:02:50;102774.34;;;10.37;58.02
74627;BME280;63132;52.268;5.192;2023-05-17T08:05:15;102779.91;;;10.51;56.83
74627;BME280;63132;52.268;5.192;2023-05-17T08:07:40;102786.59;;;10.60;53.99
74627;BME280;63132;52.268;5.192;2023-05-17T08:10:06;102773.31;;;10.78;54.06
74627;BME280;63132;52.268;5.192;2023-05-17T08:12:31;102773.16;;;10.81;53.00
74627;BME280;63132;52.268;5.192;2023-05-17T08:14:56;102776.72;;;11.35;53.07
74627;BME280;63132;52.268;5.192;2023-05-17T08:17:22;102780.00;;;11.40;52.98
74627;BME280;63132;52.268;5.192;2023-05-17T08:19:47;102766.44;;;11.45;53.14
74627;BME280;63132;52.268;5.192;2023-05-17T08:22:12;102795.06;;;11.41;53.63
74627;BME280;63132;52.268;5.192;2023-05-17T08:24:37;102776.00;;;11.31;53.81
74627;BME280;63132;52.268;5.192;2023-05-17T08:27:04;102774.13;;;11.85;53.13
74627;BME280;63132;52.268;5.192;2023-05-17T08:29:29;102774.53;;;11.43;51.93
74627;BME280;63132;52.268;5.192;2023-05-17T08:31:54;102776.53;;;11.90;51.24
74627;BME280;63132;52.268;5.192;2023-05-17T08:34:20;102778.78;;;11.98;50.86
74627;BME280;63132;52.268;5.192;2023-05-17T08:36:46;102781.63;;;12.12;50.36
74627;BME280;63132;52.268;5.192;2023-05-17T08:39:11;102779.78;;;11.79;50.83
74627;BME280;63132;52.268;5.192;2023-05-17T08:41:37;102793.34;;;11.22;49.74
74627;BME280;63132;52.268;5.192;2023-05-17T08:44:03;102801.00;;;11.29;51.33
74627;BME280;63132;52.268;5.192;2023-05-17T08:46:29;102803.81;;;11.08;52.96
74627;BME280;63132;52.268;5.192;2023-05-17T08:48:56;102812.75;;;10.70;54.69
74627;BME280;63132;52.268;5.192;2023-05-17T08:51:26;102793.91;;;10.74;56.12
74627;BME280;63132;52.268;5.192;2023-05-17T08:53:52;102799.88;;;10.80;54.69
74627;BME280;63132;52.268;5.192;2023-05-17T08:56:17;102795.19;;;10.65;54.81
74627;BME280;63132;52.268;5.192;2023-05-17T08:58:45;102803.06;;;10.86;53.98
74627;BME280;63132;52.268;5.192;2023-05-17T09:01:13;102794.72;;;10.94;54.30
74627;BME280;63132;52.268;5.192;2023-05-17T09:03:38;102794.13;;;11.07;53.63
74627;BME280;63132;52.268;5.192;2023-05-17T09:06:05;102795.28;;;11.36;52.17
74627;BME280;63132;52.268;5.192;2023-05-17T09:08:30;102793.19;;;11.25;51.29
74627;BME280;63132;52.268;5.192;2023-05-17T09:10:56;102797.16;;;11.34;51.60
74627;BME280;63132;52.268;5.192;2023-05-17T09:13:23;102796.78;;;11.07;51.34
74627;BME280;63132;52.268;5.192;2023-05-17T09:15:49;102789.09;;;11.00;49.69
74627;BME280;63132;52.268;5.192;2023-05-17T09:18:14;102802.22;;;10.86;50.24
74627;BME280;63132;52.268;5.192;2023-05-17T09:20:40;102800.38;;;10.88;51.11
74627;BME280;63132;52.268;5.192;2023-05-17T09:23:06;102817.00;;;10.74;49.62
74627;BME280;63132;52.268;5.192;2023-05-17T09:25:33;102814.97;;;10.79;50.01
74627;BME280;63132;52.268;5.192;2023-05-17T09:28:03;102815.00;;;10.97;51.01
74627;BME280;63132;52.268;5.192;2023-05-17T09:30:29;102814.38;;;11.09;50.01
74627;BME280;63132;52.268;5.192;2023-05-17T09:32:55;102809.28;;;10.87;51.13
74627;BME280;63132;52.268;5.192;2023-05-17T09:35:28;102816.13;;;10.73;52.13
74627;BME280;63132;52.268;5.192;2023-05-17T09:37:54;102811.63;;;10.56;52.51
74627;BME280;63132;52.268;5.192;2023-05-17T09:40:27;102806.94;;;10.98;52.89
74627;BME280;63132;52.268;5.192;2023-05-17T09:42:53;102808.50;;;11.03;52.06
74627;BME280;63132;52.268;5.192;2023-05-17T09:45:22;102816.47;;;10.85;52.37
74627;BME280;63132;52.268;5.192;2023-05-17T09:47:50;102809.28;;;10.87;52.25
74627;BME280;63132;52.268;5.192;2023-05-17T09:50:19;102812.03;;;10.66;52.00
74627;BME280;63132;52.268;5.192;2023-05-17T09:52:45;102827.22;;;10.64;52.44
74627;BME280;63132;52.268;5.192;2023-05-17T09:55:10;102815.22;;;10.92;51.83
74627;BME280;63132;52.268;5.192;2023-05-17T09:57:37;102810.38;;;11.00;51.33
74627;BME280;63132;52.268;5.192;2023-05-17T10:00:02;102805.19;;;11.17;51.35
74627;BME280;63132;52.268;5.192;2023-05-17T10:02:33;102810.31;;;11.02;52.54
74627;BME280;63132;52.268;5.192;2023-05-17T10:05:01;102818.00;;;10.71;51.85
74627;BME280;63132;52.268;5.192;2023-05-17T10:07:29;102811.31;;;10.82;52.25
74627;BME280;63132;52.268;5.192;2023-05-17T10:09:56;102823.09;;;10.95;51.92
74627;BME280;63132;52.268;5.192;2023-05-17T10:12:22;102810.09;;;11.07;51.33
74627;BME280;63132;52.268;5.192;2023-05-17T10:14:49;102815.03;;;11.15;50.52
74627;BME280;63132;52.268;5.192;2023-05-17T10:17:14;102810.63;;;11.13;50.18
74627;BME280;63132;52.268;5.192;2023-05-17T10:19:40;102815.91;;;11.33;49.23
74627;BME280;63132;52.268;5.192;2023-05-17T10:22:06;102809.06;;;11.27;49.54
74627;BME280;63132;52.268;5.192;2023-05-17T10:24:31;102821.09;;;11.36;49.13
74627;BME280;63132;52.268;5.192;2023-05-17T10:26:58;102822.31;;;11.46;49.44
74627;BME280;63132;52.268;5.192;2023-05-17T10:29:23;102822.97;;;11.34;49.23
74627;BME280;63132;52.268;5.192;2023-05-17T10:31:49;102820.91;;;11.39;48.98
74627;BME280;63132;52.268;5.192;2023-05-17T10:34:15;102820.44;;;11.48;50.08
74627;BME280;63132;52.268;5.192;2023-05-17T10:36:44;102827.81;;;11.25;48.90
74627;BME280;63132;52.268;5.192;2023-05-17T10:39:10;102830.00;;;10.99;50.16
74627;BME280;63132;52.268;5.192;2023-05-17T10:41:36;102818.56;;;11.33;48.79
74627;BME280;63132;52.268;5.192;2023-05-17T10:44:03;102817.91;;;11.10;49.09
74627;BME280;63132;52.268;5.192;2023-05-17T10:46:29;102811.44;;;11.16;50.40
74627;BME280;63132;52.268;5.192;2023-05-17T10:48:56;102831.78;;;10.99;50.96
74627;BME280;63132;52.268;5.192;2023-05-17T10:51:22;102812.53;;;11.29;50.44
74627;BME280;63132;52.268;5.192;2023-05-17T10:56:29;102814.34;;;11.11;49.87
74627;BME280;63132;52.268;5.192;2023-05-17T11:04:34;102823.75;;;11.18;49.07
74627;BME280;63132;52.268;5.192;2023-05-17T11:12:34;102820.19;;;11.53;49.83
74627;BME280;63132;52.268;5.192;2023-05-17T11:15:03;102829.84;;;11.20;50.35
74627;BME280;63132;52.268;5.192;2023-05-17T11:22:26;102826.28;;;11.02;51.58
74627;BME280;63132;52.268;5.192;2023-05-17T11:24:52;102814.66;;;11.22;51.56
74627;BME280;63132;52.268;5.192;2023-05-17T11:27:18;102813.06;;;11.54;52.12
74627;BME280;63132;52.268;5.192;2023-05-17T11:29:46;102829.38;;;11.47;50.10
74627;BME280;63132;52.268;5.192;2023-05-17T11:32:12;102829.00;;;11.38;50.88
74627;BME280;63132;52.268;5.192;2023-05-17T11:34:37;102832.81;;;11.14;50.07
74627;BME280;63132;52.268;5.192;2023-05-17T11:37:03;102818.16;;;11.05;50.81
74627;BME280;63132;52.268;5.192;2023-05-17T11:39:30;102827.09;;;11.22;51.23
74627;BME280;63132;52.268;5.192;2023-05-17T11:41:55;102818.44;;;11.36;50.63
74627;BME280;63132;52.268;5.192;2023-05-17T11:44:27;102823.19;;;11.29;49.94
74627;BME280;63132;52.268;5.192;2023-05-17T11:47:06;102829.22;;;11.33;49.99
74627;BME280;63132;52.268;5.192;2023-05-17T11:49:38;102816.91;;;11.48;50.82
74627;BME280;63132;52.268;5.192;2023-05-17T11:52:03;102808.84;;;11.32;50.14
74627;BME280;63132;52.268;5.192;2023-05-17T11:54:30;102807.81;;;11.70;49.65
74627;BME280;63132;52.268;5.192;2023-05-17T11:56:55;102808.38;;;11.41;48.18
74627;BME280;63132;52.268;5.192;2023-05-17T11:59:22;102825.47;;;11.37;48.78
74627;BME280;63132;52.268;5.192;2023-05-17T12:01:47;102818.47;;;11.34;49.16
74627;BME280;63132;52.268;5.192;2023-05-17T12:04:13;102815.91;;;11.33;48.89
74627;BME280;63132;52.268;5.192;2023-05-17T12:06:46;102810.44;;;11.36;49.17
74627;BME280;63132;52.268;5.192;2023-05-17T12:09:13;102811.97;;;11.40;48.45
74627;BME280;63132;52.268;5.192;2023-05-17T12:11:41;102815.91;;;11.33;48.75
74627;BME280;63132;52.268;5.192;2023-05-17T12:14:07;102817.63;;;11.52;48.88
74627;BME280;63132;52.268;5.192;2023-05-17T12:16:32;102816.38;;;11.41;48.68
74627;BME280;63132;52.268;5.192;2023-05-17T12:18:59;102812.63;;;11.28;49.33
74627;BME280;63132;52.268;5.192;2023-05-17T12:21:25;102813.75;;;11.04;49.37
74627;BME280;63132;52.268;5.192;2023-05-17T12:23:50;102813.22;;;11.15;49.45
74627;BME280;63132;52.268;5.192;2023-05-17T12:26:19;102810.44;;;11.36;50.26
74627;BME280;63132;52.268;5.192;2023-05-17T12:28:54;102818.31;;;11.73;48.68
74627;BME280;63132;52.268;5.192;2023-05-17T12:31:39;102815.50;;;11.41;48.69
74627;BME280;63132;52.268;5.192;2023-05-17T12:34:05;102821.72;;;11.41;49.19
74627;BME280;63132;52.268;5.192;2023-05-17T12:36:33;102809.00;;;11.46;49.50
74627;BME280;63132;52.268;5.192;2023-05-17T12:38:59;102799.91;;;11.51;49.30
74627;BME280;63132;52.268;5.192;2023-05-17T12:41:25;102804.16;;;11.37;48.87
74627;BME280;63132;52.268;5.192;2023-05-17T12:43:51;102798.16;;;11.67;48.74
74627;BME280;63132;52.268;5.192;2023-05-17T12:46:17;102797.00;;;11.55;48.93
74627;BME280;63132;52.268;5.192;2023-05-17T12:48:43;102798.91;;;11.87;49.17
74627;BME280;63132;52.268;5.192;2023-05-17T12:53:34;102803.47;;;11.67;48.00
74627;BME280;63132;52.268;5.192;2023-05-17T12:56:01;102799.44;;;11.60;48.72
74627;BME280;63132;52.268;5.192;2023-05-17T12:58:26;102786.72;;;11.65;50.14
74627;BME280;63132;52.268;5.192;2023-05-17T13:00:55;102805.63;;;11.60;49.28
74627;BME280;63132;52.268;5.192;2023-05-17T13:03:21;102818.47;;;11.70;49.52
74627;BME280;63132;52.268;5.192;2023-05-17T13:05:55;102800.06;;;11.30;48.84
74627;BME280;63132;52.268;5.192;2023-05-17T13:08:21;102797.47;;;11.64;49.10
74627;BME280;63132;52.268;5.192;2023-05-17T13:10:46;102797.16;;;11.86;49.16
74627;BME280;63132;52.268;5.192;2023-05-17T13:13:16;102791.03;;;11.68;48.56
74627;BME280;63132;52.268;5.192;2023-05-17T13:15:44;102804.84;;;11.58;48.57
74627;BME280;63132;52.268;5.192;2023-05-17T13:18:13;102798.72;;;11.74;48.76
74627;BME280;63132;52.268;5.192;2023-05-17T13:20:40;102797.88;;;11.38;47.67